sensor_id;sensor_type;location;lat;lon;timestamp;P1;durP1;ratioP1;P2;durP2;ratioP2
11319;SDS011;5715;48.234;14.320;2023-03-26T00:00:46;4.40;;;4.00;;
11319;SDS011;5715;48.234;14.320;2023-03-26T00:03:36;4.83;;;4.13;;
11319;SDS011;5715;48.234;14.320;2023-03-26T00:06:29;5.00;;;4.60;;
11319;SDS011;5715;48.234;14.320;2023-03-26T00:09:22;4.37;;;4.07;;
11319;SDS011;5715;48.234;14.320;2023-03-26T00:12:12;8.87;;;3.57;;
11319;SDS011;5715;48.234;14.320;2023-03-26T00:15:00;3.43;;;3.23;;
11319;SDS011;5715;48.234;14.320;2023-03-26T00:17:50;3.93;;;3.73;;
11319;SDS011;5715;48.234;14.320;2023-03-26T00:20:39;3.90;;;3.70;;
11319;SDS011;5715;48.234;14.320;2023-03-26T00:23:27;3.53;;;3.33;;
11319;SDS011;5715;48.234;14.320;2023-03-26T00:26:17;8.30;;;4.33;;
11319;SDS011;5715;48.234;14.320;2023-03-26T00:29:05;3.80;;;3.60;;
11319;SDS011;5715;48.234;14.320;2023-03-26T00:31:55;3.50;;;3.30;;
11319;SDS011;5715;48.234;14.320;2023-03-26T00:34:43;5.37;;;4.30;;
11319;SDS011;5715;48.234;14.320;2023-03-26T00:37:31;4.13;;;3.83;;
11319;SDS011;5715;48.234;14.320;2023-03-26T00:40:19;3.40;;;3.30;;
11319;SDS011;5715;48.234;14.320;2023-03-26T00:43:09;3.60;;;3.40;;
11319;SDS011;5715;48.234;14.320;2023-03-26T00:46:04;4.00;;;3.70;;
11319;SDS011;5715;48.234;14.320;2023-03-26T00:48:52;10.27;;;3.30;;
11319;SDS011;5715;48.234;14.320;2023-03-26T00:51:44;3.60;;;3.40;;
11319;SDS011;5715;48.234;14.320;2023-03-26T00:54:32;2.97;;;2.87;;
11319;SDS011;5715;48.234;14.320;2023-03-26T00:57:20;3.47;;;3.27;;
11319;SDS011;5715;48.234;14.320;2023-03-26T01:00:26;2.27;;;2.17;;
11319;SDS011;5715;48.234;14.320;2023-03-26T01:03:22;2.07;;;1.97;;
11319;SDS011;5715;48.234;14.320;2023-03-26T01:06:17;1.63;;;1.53;;
11319;SDS011;5715;48.234;14.320;2023-03-26T01:09:14;1.40;;;1.40;;
11319;SDS011;5715;48.234;14.320;2023-03-26T01:12:06;2.17;;;1.90;;
11319;SDS011;5715;48.234;14.320;2023-03-26T01:15:01;3.33;;;1.83;;
11319;SDS011;5715;48.234;14.320;2023-03-26T01:17:50;1.73;;;1.63;;
11319;SDS011;5715;48.234;14.320;2023-03-26T01:20:43;1.97;;;1.87;;
11319;SDS011;5715;48.234;14.320;2023-03-26T01:23:45;1.83;;;1.73;;
11319;SDS011;5715;48.234;14.320;2023-03-26T01:41:48;1.60;;;1.50;;
11319;SDS011;5715;48.234;14.320;2023-03-26T01:48:09;6.83;;;3.03;;
11319;SDS011;5715;48.234;14.320;2023-03-26T01:50:59;3.70;;;3.50;;
11319;SDS011;5715;48.234;14.320;2023-03-26T01:53:46;2.80;;;2.60;;
11319;SDS011;5715;48.234;14.320;2023-03-26T02:00:28;1.17;;;1.17;;
11319;SDS011;5715;48.234;14.320;2023-03-26T02:03:31;1.00;;;1.00;;
11319;SDS011;5715;48.234;14.320;2023-03-26T02:06:50;0.90;;;0.90;;
11319;SDS011;5715;48.234;14.320;2023-03-26T02:09:45;1.97;;;1.47;;
11319;SDS011;5715;48.234;14.320;2023-03-26T02:12:39;1.40;;;1.30;;
11319;SDS011;5715;48.234;14.320;2023-03-26T02:15:29;1.53;;;1.43;;
11319;SDS011;5715;48.234;14.320;2023-03-26T02:18:18;1.87;;;1.77;;
11319;SDS011;5715;48.234;14.320;2023-03-26T02:23:59;1.90;;;1.70;;
11319;SDS011;5715;48.234;14.320;2023-03-26T02:26:50;2.70;;;1.70;;
11319;SDS011;5715;48.234;14.320;2023-03-26T02:29:39;1.40;;;1.40;;
11319;SDS011;5715;48.234;14.320;2023-03-26T02:32:27;1.30;;;1.30;;
11319;SDS011;5715;48.234;14.320;2023-03-26T02:35:15;1.27;;;1.27;;
11319;SDS011;5715;48.234;14.320;2023-03-26T02:38:02;1.63;;;1.53;;
11319;SDS011;5715;48.234;14.320;2023-03-26T02:40:50;6.80;;;1.90;;
11319;SDS011;5715;48.234;14.320;2023-03-26T02:43:40;1.40;;;1.40;;
11319;SDS011;5715;48.234;14.320;2023-03-26T02:46:27;1.60;;;1.50;;
11319;SDS011;5715;48.234;14.320;2023-03-26T02:49:15;1.60;;;1.50;;
11319;SDS011;5715;48.234;14.320;2023-03-26T02:52:03;1.80;;;1.70;;
11319;SDS011;5715;48.234;14.320;2023-03-26T02:54:52;1.50;;;1.50;;
11319;SDS011;5715;48.234;14.320;2023-03-26T02:57:40;1.67;;;1.57;;
11319;SDS011;5715;48.234;14.320;2023-03-26T03:00:27;1.70;;;1.60;;
11319;SDS011;5715;48.234;14.320;2023-03-26T03:03:15;1.40;;;1.40;;
11319;SDS011;5715;48.234;14.320;2023-03-26T03:06:03;2.70;;;1.83;;
11319;SDS011;5715;48.234;14.320;2023-03-26T03:08:51;2.23;;;2.13;;
11319;SDS011;5715;48.234;14.320;2023-03-26T03:11:39;1.53;;;1.43;;
11319;SDS011;5715;48.234;14.320;2023-03-26T03:14:27;1.40;;;1.33;;
11319;SDS011;5715;48.234;14.320;2023-03-26T03:17:15;1.20;;;1.20;;
11319;SDS011;5715;48.234;14.320;2023-03-26T03:20:02;1.70;;;1.60;;
11319;SDS011;5715;48.234;14.320;2023-03-26T03:22:53;1.37;;;1.37;;
11319;SDS011;5715;48.234;14.320;2023-03-26T03:25:41;1.13;;;1.13;;
11319;SDS011;5715;48.234;14.320;2023-03-26T03:28:29;1.07;;;1.07;;
11319;SDS011;5715;48.234;14.320;2023-03-26T03:31:17;2.63;;;1.97;;
11319;SDS011;5715;48.234;14.320;2023-03-26T03:34:04;1.37;;;1.33;;
11319;SDS011;5715;48.234;14.320;2023-03-26T03:36:52;1.13;;;1.13;;
11319;SDS011;5715;48.234;14.320;2023-03-26T03:39:39;1.30;;;1.20;;
11319;SDS011;5715;48.234;14.320;2023-03-26T03:42:27;2.97;;;1.20;;
11319;SDS011;5715;48.234;14.320;2023-03-26T03:45:15;1.20;;;1.20;;
11319;SDS011;5715;48.234;14.320;2023-03-26T03:48:03;1.70;;;1.53;;
11319;SDS011;5715;48.234;14.320;2023-03-26T03:50:51;1.10;;;1.10;;
11319;SDS011;5715;48.234;14.320;2023-03-26T03:53:39;3.63;;;1.57;;
11319;SDS011;5715;48.234;14.320;2023-03-26T03:56:27;1.40;;;1.30;;
11319;SDS011;5715;48.234;14.320;2023-03-26T03:59:15;1.50;;;1.40;;
11319;SDS011;5715;48.234;14.320;2023-03-26T04:02:03;1.20;;;1.20;;
11319;SDS011;5715;48.234;14.320;2023-03-26T04:04:51;1.17;;;1.17;;
11319;SDS011;5715;48.234;14.320;2023-03-26T04:07:39;0.90;;;0.90;;
11319;SDS011;5715;48.234;14.320;2023-03-26T04:10:27;2.80;;;1.63;;
11319;SDS011;5715;48.234;14.320;2023-03-26T04:13:15;2.63;;;1.67;;
11319;SDS011;5715;48.234;14.320;2023-03-26T04:16:03;1.50;;;1.40;;
11319;SDS011;5715;48.234;14.320;2023-03-26T04:18:51;1.77;;;1.43;;
11319;SDS011;5715;48.234;14.320;2023-03-26T04:21:39;1.57;;;1.47;;
11319;SDS011;5715;48.234;14.320;2023-03-26T04:24:28;1.40;;;1.30;;
11319;SDS011;5715;48.234;14.320;2023-03-26T04:27:17;1.10;;;1.10;;
11319;SDS011;5715;48.234;14.320;2023-03-26T04:30:14;4.80;;;1.40;;
11319;SDS011;5715;48.234;14.320;2023-03-26T04:33:07;1.30;;;1.20;;
11319;SDS011;5715;48.234;14.320;2023-03-26T04:36:01;3.27;;;1.40;;
11319;SDS011;5715;48.234;14.320;2023-03-26T04:38:49;1.10;;;1.10;;
11319;SDS011;5715;48.234;14.320;2023-03-26T04:41:37;1.10;;;1.10;;
11319;SDS011;5715;48.234;14.320;2023-03-26T04:44:25;1.53;;;1.43;;
11319;SDS011;5715;48.234;14.320;2023-03-26T04:47:18;1.40;;;1.30;;
11319;SDS011;5715;48.234;14.320;2023-03-26T04:50:07;1.50;;;1.40;;
11319;SDS011;5715;48.234;14.320;2023-03-26T04:52:56;1.10;;;1.10;;
11319;SDS011;5715;48.234;14.320;2023-03-26T04:55:45;11.57;;;1.73;;
11319;SDS011;5715;48.234;14.320;2023-03-26T04:59:14;4.37;;;1.87;;
11319;SDS011;5715;48.234;14.320;2023-03-26T05:02:12;3.23;;;1.80;;
11319;SDS011;5715;48.234;14.320;2023-03-26T05:04:59;1.20;;;1.20;;
11319;SDS011;5715;48.234;14.320;2023-03-26T05:07:48;1.57;;;1.47;;
11319;SDS011;5715;48.234;14.320;2023-03-26T05:10:36;2.47;;;2.07;;
11319;SDS011;5715;48.234;14.320;2023-03-26T05:13:23;1.77;;;1.40;;
11319;SDS011;5715;48.234;14.320;2023-03-26T05:16:11;1.60;;;1.50;;
11319;SDS011;5715;48.234;14.320;2023-03-26T05:18:59;1.73;;;1.63;;
11319;SDS011;5715;48.234;14.320;2023-03-26T05:21:46;1.30;;;1.20;;
11319;SDS011;5715;48.234;14.320;2023-03-26T05:24:34;3.50;;;1.93;;
11319;SDS011;5715;48.234;14.320;2023-03-26T05:27:21;2.57;;;1.80;;
11319;SDS011;5715;48.234;14.320;2023-03-26T05:30:11;1.80;;;1.70;;
11319;SDS011;5715;48.234;14.320;2023-03-26T05:33:03;6.47;;;1.80;;
11319;SDS011;5715;48.234;14.320;2023-03-26T05:38:55;1.90;;;1.77;;
11319;SDS011;5715;48.234;14.320;2023-03-26T05:41:43;2.00;;;1.90;;
11319;SDS011;5715;48.234;14.320;2023-03-26T05:44:30;1.60;;;1.50;;
11319;SDS011;5715;48.234;14.320;2023-03-26T05:47:18;1.83;;;1.73;;
11319;SDS011;5715;48.234;14.320;2023-03-26T05:50:06;1.60;;;1.50;;
11319;SDS011;5715;48.234;14.320;2023-03-26T05:52:55;3.33;;;1.90;;
11319;SDS011;5715;48.234;14.320;2023-03-26T05:55:46;1.87;;;1.73;;
11319;SDS011;5715;48.234;14.320;2023-03-26T05:58:44;2.00;;;1.80;;
11319;SDS011;5715;48.234;14.320;2023-03-26T06:01:33;1.80;;;1.70;;
11319;SDS011;5715;48.234;14.320;2023-03-26T06:04:23;2.20;;;2.00;;
11319;SDS011;5715;48.234;14.320;2023-03-26T06:07:10;2.17;;;1.97;;
11319;SDS011;5715;48.234;14.320;2023-03-26T06:09:58;2.20;;;2.07;;
11319;SDS011;5715;48.234;14.320;2023-03-26T06:12:46;1.70;;;1.60;;
11319;SDS011;5715;48.234;14.320;2023-03-26T06:15:35;1.43;;;1.33;;
11319;SDS011;5715;48.234;14.320;2023-03-26T06:18:23;1.40;;;1.30;;
11319;SDS011;5715;48.234;14.320;2023-03-26T06:21:11;1.60;;;1.50;;
11319;SDS011;5715;48.234;14.320;2023-03-26T06:23:59;1.33;;;1.20;;
11319;SDS011;5715;48.234;14.320;2023-03-26T06:26:46;1.57;;;1.20;;
11319;SDS011;5715;48.234;14.320;2023-03-26T06:29:34;1.97;;;1.83;;
11319;SDS011;5715;48.234;14.320;2023-03-26T06:32:22;1.13;;;1.10;;
11319;SDS011;5715;48.234;14.320;2023-03-26T06:35:10;1.50;;;1.40;;
11319;SDS011;5715;48.234;14.320;2023-03-26T06:37:57;0.87;;;0.87;;
11319;SDS011;5715;48.234;14.320;2023-03-26T06:40:45;1.10;;;1.10;;
11319;SDS011;5715;48.234;14.320;2023-03-26T06:43:33;1.40;;;1.00;;
11319;SDS011;5715;48.234;14.320;2023-03-26T06:46:21;5.57;;;1.97;;
11319;SDS011;5715;48.234;14.320;2023-03-26T06:49:11;1.27;;;0.93;;
11319;SDS011;5715;48.234;14.320;2023-03-26T06:51:58;1.90;;;1.43;;
11319;SDS011;5715;48.234;14.320;2023-03-26T06:54:48;1.27;;;1.17;;
11319;SDS011;5715;48.234;14.320;2023-03-26T06:57:36;3.50;;;1.97;;
11319;SDS011;5715;48.234;14.320;2023-03-26T07:00:24;1.53;;;1.27;;
11319;SDS011;5715;48.234;14.320;2023-03-26T07:03:11;1.73;;;1.53;;
11319;SDS011;5715;48.234;14.320;2023-03-26T07:05:59;1.33;;;1.23;;
11319;SDS011;5715;48.234;14.320;2023-03-26T07:08:46;1.37;;;1.17;;
11319;SDS011;5715;48.234;14.320;2023-03-26T07:11:34;3.23;;;1.40;;
11319;SDS011;5715;48.234;14.320;2023-03-26T07:14:22;1.17;;;1.17;;
11319;SDS011;5715;48.234;14.320;2023-03-26T07:17:10;0.90;;;0.90;;
11319;SDS011;5715;48.234;14.320;2023-03-26T07:19:57;5.17;;;4.67;;
11319;SDS011;5715;48.234;14.320;2023-03-26T07:22:47;1.53;;;1.20;;
11319;SDS011;5715;48.234;14.320;2023-03-26T07:25:35;2.03;;;1.10;;
11319;SDS011;5715;48.234;14.320;2023-03-26T07:31:30;1.10;;;0.93;;
11319;SDS011;5715;48.234;14.320;2023-03-26T07:37:49;1.53;;;1.43;;
11319;SDS011;5715;48.234;14.320;2023-03-26T07:47:22;3.70;;;0.80;;
11319;SDS011;5715;48.234;14.320;2023-03-26T07:50:20;2.60;;;0.90;;
11319;SDS011;5715;48.234;14.320;2023-03-26T07:53:09;5.70;;;1.47;;
11319;SDS011;5715;48.234;14.320;2023-03-26T07:56:14;1.30;;;1.20;;
11319;SDS011;5715;48.234;14.320;2023-03-26T08:12:17;2.37;;;1.27;;
11319;SDS011;5715;48.234;14.320;2023-03-26T08:18:25;3.87;;;1.80;;
11319;SDS011;5715;48.234;14.320;2023-03-26T08:21:49;1.50;;;1.40;;
11319;SDS011;5715;48.234;14.320;2023-03-26T08:24:44;4.23;;;1.93;;
11319;SDS011;5715;48.234;14.320;2023-03-26T08:31:14;1.27;;;1.27;;
11319;SDS011;5715;48.234;14.320;2023-03-26T08:34:05;4.60;;;1.60;;
11319;SDS011;5715;48.234;14.320;2023-03-26T08:36:57;2.73;;;2.23;;
11319;SDS011;5715;48.234;14.320;2023-03-26T08:39:45;2.22;;;2.00;;
11319;SDS011;5715;48.234;14.320;2023-03-26T08:56:18;2.67;;;1.87;;
11319;SDS011;5715;48.234;14.320;2023-03-26T09:25:49;1.95;;;1.52;;
11319;SDS011;5715;48.234;14.320;2023-03-26T09:42:45;2.10;;;1.40;;
11319;SDS011;5715;48.234;14.320;2023-03-26T09:46:12;1.27;;;1.17;;
11319;SDS011;5715;48.234;14.320;2023-03-26T09:49:47;3.25;;;1.35;;
11319;SDS011;5715;48.234;14.320;2023-03-26T09:53:18;1.77;;;1.17;;
11319;SDS011;5715;48.234;14.320;2023-03-26T10:12:35;4.60;;;1.48;;
11319;SDS011;5715;48.234;14.320;2023-03-26T10:15:33;1.10;;;1.00;;
11319;SDS011;5715;48.234;14.320;2023-03-26T10:33:42;1.63;;;0.93;;
11319;SDS011;5715;48.234;14.320;2023-03-26T10:40:21;2.47;;;1.02;;
11319;SDS011;5715;48.234;14.320;2023-03-26T10:43:36;2.03;;;1.05;;
11319;SDS011;5715;48.234;14.320;2023-03-26T10:53:35;1.10;;;1.00;;
11319;SDS011;5715;48.234;14.320;2023-03-26T10:56:46;2.90;;;1.10;;
11319;SDS011;5715;48.234;14.320;2023-03-26T10:59:37;1.45;;;1.00;;
11319;SDS011;5715;48.234;14.320;2023-03-26T11:02:26;1.85;;;0.95;;
11319;SDS011;5715;48.234;14.320;2023-03-26T11:05:25;1.63;;;0.90;;
11319;SDS011;5715;48.234;14.320;2023-03-26T11:08:44;1.23;;;1.13;;
11319;SDS011;5715;48.234;14.320;2023-03-26T11:21:15;1.58;;;1.05;;
11319;SDS011;5715;48.234;14.320;2023-03-26T11:34:00;1.48;;;0.95;;
11319;SDS011;5715;48.234;14.320;2023-03-26T11:36:55;8.18;;;1.88;;
11319;SDS011;5715;48.234;14.320;2023-03-26T11:39:48;3.58;;;1.40;;
11319;SDS011;5715;48.234;14.320;2023-03-26T11:42:42;2.67;;;1.38;;
11319;SDS011;5715;48.234;14.320;2023-03-26T11:45:31;3.55;;;1.20;;
11319;SDS011;5715;48.234;14.320;2023-03-26T11:48:26;1.02;;;0.82;;
11319;SDS011;5715;48.234;14.320;2023-03-26T11:54:26;2.10;;;1.02;;
11319;SDS011;5715;48.234;14.320;2023-03-26T11:57:19;3.70;;;0.93;;
11319;SDS011;5715;48.234;14.320;2023-03-26T12:00:14;0.75;;;0.75;;
11319;SDS011;5715;48.234;14.320;2023-03-26T12:03:06;1.13;;;0.82;;
11319;SDS011;5715;48.234;14.320;2023-03-26T12:06:01;1.95;;;1.23;;
11319;SDS011;5715;48.234;14.320;2023-03-26T12:08:50;4.63;;;0.73;;
11319;SDS011;5715;48.234;14.320;2023-03-26T12:11:38;4.75;;;1.40;;
11319;SDS011;5715;48.234;14.320;2023-03-26T12:14:27;1.60;;;1.27;;
11319;SDS011;5715;48.234;14.320;2023-03-26T12:23:32;1.10;;;1.00;;
11319;SDS011;5715;48.234;14.320;2023-03-26T12:26:42;2.42;;;1.02;;
11319;SDS011;5715;48.234;14.320;2023-03-26T12:29:32;1.50;;;1.00;;
11319;SDS011;5715;48.234;14.320;2023-03-26T12:32:20;0.70;;;0.70;;
11319;SDS011;5715;48.234;14.320;2023-03-26T12:35:25;9.60;;;1.15;;
11319;SDS011;5715;48.234;14.320;2023-03-26T12:38:24;3.60;;;1.10;;
11319;SDS011;5715;48.234;14.320;2023-03-26T12:41:19;1.45;;;1.00;;
11319;SDS011;5715;48.234;14.320;2023-03-26T12:44:44;1.60;;;1.10;;
11319;SDS011;5715;48.234;14.320;2023-03-26T12:47:44;3.65;;;1.13;;
11319;SDS011;5715;48.234;14.320;2023-03-26T12:54:40;1.13;;;1.13;;
11319;SDS011;5715;48.234;14.320;2023-03-26T12:57:35;1.33;;;1.13;;
11319;SDS011;5715;48.234;14.320;2023-03-26T13:07:56;2.20;;;1.20;;
11319;SDS011;5715;48.234;14.320;2023-03-26T13:21:58;8.15;;;1.70;;
11319;SDS011;5715;48.234;14.320;2023-03-26T13:35:32;1.50;;;1.40;;
11319;SDS011;5715;48.234;14.320;2023-03-26T13:42:17;2.05;;;1.95;;
11319;SDS011;5715;48.234;14.320;2023-03-26T13:48:29;0.77;;;0.77;;
11319;SDS011;5715;48.234;14.320;2023-03-26T13:51:55;1.40;;;1.30;;
11319;SDS011;5715;48.234;14.320;2023-03-26T13:55:06;1.60;;;1.30;;
11319;SDS011;5715;48.234;14.320;2023-03-26T14:01:33;1.57;;;1.00;;
11319;SDS011;5715;48.234;14.320;2023-03-26T14:04:29;2.80;;;1.20;;
11319;SDS011;5715;48.234;14.320;2023-03-26T14:07:27;0.97;;;0.97;;
11319;SDS011;5715;48.234;14.320;2023-03-26T14:10:29;1.97;;;0.90;;
11319;SDS011;5715;48.234;14.320;2023-03-26T14:16:34;1.00;;;1.00;;
11319;SDS011;5715;48.234;14.320;2023-03-26T14:20:18;1.43;;;1.33;;
11319;SDS011;5715;48.234;14.320;2023-03-26T14:23:13;3.50;;;1.20;;
11319;SDS011;5715;48.234;14.320;2023-03-26T14:33:36;0.60;;;0.60;;
11319;SDS011;5715;48.234;14.320;2023-03-26T14:40:29;1.60;;;1.03;;
11319;SDS011;5715;48.234;14.320;2023-03-26T14:47:17;0.80;;;0.80;;
11319;SDS011;5715;48.234;14.320;2023-03-26T14:53:33;0.80;;;0.80;;
11319;SDS011;5715;48.234;14.320;2023-03-26T15:33:48;1.00;;;0.90;;
11319;SDS011;5715;48.234;14.320;2023-03-26T15:44:06;0.93;;;0.83;;
11319;SDS011;5715;48.234;14.320;2023-03-26T16:05:19;1.10;;;1.10;;
11319;SDS011;5715;48.234;14.320;2023-03-26T16:08:45;4.53;;;1.77;;
11319;SDS011;5715;48.234;14.320;2023-03-26T16:11:56;3.70;;;1.70;;
11319;SDS011;5715;48.234;14.320;2023-03-26T16:18:16;1.60;;;1.50;;
11319;SDS011;5715;48.234;14.320;2023-03-26T16:24:29;1.77;;;1.67;;
11319;SDS011;5715;48.234;14.320;2023-03-26T16:27:34;1.63;;;1.53;;
11319;SDS011;5715;48.234;14.320;2023-03-26T16:30:24;2.03;;;1.90;;
11319;SDS011;5715;48.234;14.320;2023-03-26T16:33:17;1.73;;;1.63;;
11319;SDS011;5715;48.234;14.320;2023-03-26T16:36:28;1.83;;;1.73;;
11319;SDS011;5715;48.234;14.320;2023-03-26T16:39:38;2.40;;;2.20;;
11319;SDS011;5715;48.234;14.320;2023-03-26T16:42:29;1.40;;;1.40;;
11319;SDS011;5715;48.234;14.320;2023-03-26T16:45:35;1.67;;;1.57;;
11319;SDS011;5715;48.234;14.320;2023-03-26T16:52:06;1.97;;;1.83;;
11319;SDS011;5715;48.234;14.320;2023-03-26T17:01:49;1.77;;;1.67;;
11319;SDS011;5715;48.234;14.320;2023-03-26T17:04:52;1.30;;;1.30;;
11319;SDS011;5715;48.234;14.320;2023-03-26T17:14:27;2.60;;;1.20;;
11319;SDS011;5715;48.234;14.320;2023-03-26T17:17:29;1.10;;;1.10;;
11319;SDS011;5715;48.234;14.320;2023-03-26T17:20:39;1.00;;;1.00;;
11319;SDS011;5715;48.234;14.320;2023-03-26T17:42:30;1.40;;;1.30;;
11319;SDS011;5715;48.234;14.320;2023-03-26T17:45:21;1.60;;;1.50;;
11319;SDS011;5715;48.234;14.320;2023-03-26T17:48:20;1.70;;;1.33;;
11319;SDS011;5715;48.234;14.320;2023-03-26T17:54:44;1.70;;;1.40;;
11319;SDS011;5715;48.234;14.320;2023-03-26T17:57:40;5.60;;;5.30;;
11319;SDS011;5715;48.234;14.320;2023-03-26T18:00:39;1.53;;;1.43;;
11319;SDS011;5715;48.234;14.320;2023-03-26T18:03:49;2.03;;;1.73;;
11319;SDS011;5715;48.234;14.320;2023-03-26T18:10:24;1.90;;;1.80;;
11319;SDS011;5715;48.234;14.320;2023-03-26T18:16:32;6.93;;;3.07;;
11319;SDS011;5715;48.234;14.320;2023-03-26T18:19:46;2.30;;;2.10;;
11319;SDS011;5715;48.234;14.320;2023-03-26T18:22:37;1.60;;;1.50;;
11319;SDS011;5715;48.234;14.320;2023-03-26T18:25:28;2.50;;;1.50;;
11319;SDS011;5715;48.234;14.320;2023-03-26T18:28:19;3.83;;;2.37;;
11319;SDS011;5715;48.234;14.320;2023-03-26T18:31:24;1.90;;;1.80;;
11319;SDS011;5715;48.234;14.320;2023-03-26T18:34:14;1.60;;;1.50;;
11319;SDS011;5715;48.234;14.320;2023-03-26T18:40:12;2.27;;;1.60;;
11319;SDS011;5715;48.234;14.320;2023-03-26T18:43:12;1.90;;;1.80;;
11319;SDS011;5715;48.234;14.320;2023-03-26T18:46:20;1.63;;;1.53;;
11319;SDS011;5715;48.234;14.320;2023-03-26T18:49:13;1.57;;;1.47;;
11319;SDS011;5715;48.234;14.320;2023-03-26T18:52:02;6.93;;;1.97;;
11319;SDS011;5715;48.234;14.320;2023-03-26T18:54:51;2.30;;;1.93;;
11319;SDS011;5715;48.234;14.320;2023-03-26T18:57:42;2.90;;;2.10;;
11319;SDS011;5715;48.234;14.320;2023-03-26T19:00:30;1.57;;;1.47;;
11319;SDS011;5715;48.234;14.320;2023-03-26T19:03:22;1.70;;;1.60;;
11319;SDS011;5715;48.234;14.320;2023-03-26T19:06:11;2.50;;;1.60;;
11319;SDS011;5715;48.234;14.320;2023-03-26T19:09:01;2.50;;;1.70;;
11319;SDS011;5715;48.234;14.320;2023-03-26T19:12:07;7.57;;;1.53;;
11319;SDS011;5715;48.234;14.320;2023-03-26T19:15:04;0.90;;;0.90;;
11319;SDS011;5715;48.234;14.320;2023-03-26T19:17:59;3.13;;;1.60;;
11319;SDS011;5715;48.234;14.320;2023-03-26T19:21:00;7.40;;;1.20;;
11319;SDS011;5715;48.234;14.320;2023-03-26T19:23:50;1.43;;;1.37;;
11319;SDS011;5715;48.234;14.320;2023-03-26T19:26:39;1.63;;;1.43;;
11319;SDS011;5715;48.234;14.320;2023-03-26T19:29:28;1.50;;;1.40;;
11319;SDS011;5715;48.234;14.320;2023-03-26T19:32:31;1.77;;;1.67;;
11319;SDS011;5715;48.234;14.320;2023-03-26T19:35:20;1.10;;;1.10;;
11319;SDS011;5715;48.234;14.320;2023-03-26T19:44:18;2.13;;;1.57;;
11319;SDS011;5715;48.234;14.320;2023-03-26T19:47:20;3.23;;;1.97;;
11319;SDS011;5715;48.234;14.320;2023-03-26T19:50:32;3.00;;;1.73;;
11319;SDS011;5715;48.234;14.320;2023-03-26T19:53:23;1.97;;;1.73;;
11319;SDS011;5715;48.234;14.320;2023-03-26T19:56:28;2.37;;;1.60;;
11319;SDS011;5715;48.234;14.320;2023-03-26T19:59:16;4.83;;;2.10;;
11319;SDS011;5715;48.234;14.320;2023-03-26T20:02:08;1.53;;;1.20;;
11319;SDS011;5715;48.234;14.320;2023-03-26T20:05:00;2.07;;;1.57;;
11319;SDS011;5715;48.234;14.320;2023-03-26T20:07:51;3.57;;;1.80;;
11319;SDS011;5715;48.234;14.320;2023-03-26T20:10:46;1.43;;;1.33;;
11319;SDS011;5715;48.234;14.320;2023-03-26T20:13:33;1.63;;;1.50;;
11319;SDS011;5715;48.234;14.320;2023-03-26T20:16:25;2.50;;;1.70;;
11319;SDS011;5715;48.234;14.320;2023-03-26T20:19:15;1.90;;;1.80;;
11319;SDS011;5715;48.234;14.320;2023-03-26T20:22:04;2.23;;;1.70;;
11319;SDS011;5715;48.234;14.320;2023-03-26T20:28:08;2.03;;;1.80;;
11319;SDS011;5715;48.234;14.320;2023-03-26T20:30:55;3.10;;;1.83;;
11319;SDS011;5715;48.234;14.320;2023-03-26T20:33:43;1.83;;;1.73;;
11319;SDS011;5715;48.234;14.320;2023-03-26T20:36:32;2.10;;;1.90;;
11319;SDS011;5715;48.234;14.320;2023-03-26T20:39:22;2.37;;;2.10;;
11319;SDS011;5715;48.234;14.320;2023-03-26T20:42:10;3.20;;;2.50;;
11319;SDS011;5715;48.234;14.320;2023-03-26T20:45:02;3.17;;;2.80;;
11319;SDS011;5715;48.234;14.320;2023-03-26T20:48:04;3.40;;;3.03;;
11319;SDS011;5715;48.234;14.320;2023-03-26T20:50:54;3.23;;;2.97;;
11319;SDS011;5715;48.234;14.320;2023-03-26T20:53:43;2.97;;;2.70;;
11319;SDS011;5715;48.234;14.320;2023-03-26T20:56:32;2.63;;;2.43;;
11319;SDS011;5715;48.234;14.320;2023-03-26T20:59:24;4.13;;;3.00;;
11319;SDS011;5715;48.234;14.320;2023-03-26T21:02:13;1.90;;;1.80;;
11319;SDS011;5715;48.234;14.320;2023-03-26T21:05:01;2.00;;;1.80;;
11319;SDS011;5715;48.234;14.320;2023-03-26T21:07:52;4.00;;;2.50;;
11319;SDS011;5715;48.234;14.320;2023-03-26T21:10:44;2.93;;;2.13;;
11319;SDS011;5715;48.234;14.320;2023-03-26T21:16:23;2.50;;;2.30;;
11319;SDS011;5715;48.234;14.320;2023-03-26T21:19:12;5.13;;;2.20;;
11319;SDS011;5715;48.234;14.320;2023-03-26T21:25:50;1.67;;;1.57;;
11319;SDS011;5715;48.234;14.320;2023-03-26T21:31:32;1.10;;;1.10;;
11319;SDS011;5715;48.234;14.320;2023-03-26T21:34:23;1.20;;;1.10;;
11319;SDS011;5715;48.234;14.320;2023-03-26T21:37:14;1.60;;;1.33;;
11319;SDS011;5715;48.234;14.320;2023-03-26T21:40:05;1.30;;;1.20;;
11319;SDS011;5715;48.234;14.320;2023-03-26T21:43:02;1.00;;;1.00;;
11319;SDS011;5715;48.234;14.320;2023-03-26T21:45:50;1.00;;;1.00;;
11319;SDS011;5715;48.234;14.320;2023-03-26T21:48:40;1.20;;;1.10;;
11319;SDS011;5715;48.234;14.320;2023-03-26T21:51:29;0.90;;;0.90;;
11319;SDS011;5715;48.234;14.320;2023-03-26T21:54:21;1.43;;;1.10;;
11319;SDS011;5715;48.234;14.320;2023-03-26T21:57:25;0.90;;;0.90;;
11319;SDS011;5715;48.234;14.320;2023-03-26T22:01:13;1.00;;;0.97;;
11319;SDS011;5715;48.234;14.320;2023-03-26T22:07:55;15.60;;;1.20;;
11319;SDS011;5715;48.234;14.320;2023-03-26T22:10:48;0.87;;;0.87;;
11319;SDS011;5715;48.234;14.320;2023-03-26T22:13:37;0.90;;;0.90;;
11319;SDS011;5715;48.234;14.320;2023-03-26T22:16:24;1.30;;;1.20;;
11319;SDS011;5715;48.234;14.320;2023-03-26T22:19:12;1.00;;;1.00;;
11319;SDS011;5715;48.234;14.320;2023-03-26T22:22:00;1.00;;;1.00;;
11319;SDS011;5715;48.234;14.320;2023-03-26T22:24:48;1.23;;;1.20;;
11319;SDS011;5715;48.234;14.320;2023-03-26T22:27:35;1.10;;;1.10;;
11319;SDS011;5715;48.234;14.320;2023-03-26T22:30:31;0.90;;;0.90;;
11319;SDS011;5715;48.234;14.320;2023-03-26T22:33:19;0.80;;;0.80;;
11319;SDS011;5715;48.234;14.320;2023-03-26T22:36:07;0.90;;;0.90;;
11319;SDS011;5715;48.234;14.320;2023-03-26T22:39:09;1.63;;;1.53;;
11319;SDS011;5715;48.234;14.320;2023-03-26T22:41:57;1.07;;;1.07;;
11319;SDS011;5715;48.234;14.320;2023-03-26T22:44:47;1.00;;;1.00;;
11319;SDS011;5715;48.234;14.320;2023-03-26T22:47:35;1.40;;;1.30;;
11319;SDS011;5715;48.234;14.320;2023-03-26T22:50:23;1.40;;;1.30;;
11319;SDS011;5715;48.234;14.320;2023-03-26T22:53:11;1.20;;;1.20;;
11319;SDS011;5715;48.234;14.320;2023-03-26T22:55:59;1.00;;;1.00;;
11319;SDS011;5715;48.234;14.320;2023-03-26T22:58:49;1.20;;;1.20;;
11319;SDS011;5715;48.234;14.320;2023-03-26T23:01:37;1.63;;;1.53;;
11319;SDS011;5715;48.234;14.320;2023-03-26T23:04:25;1.50;;;1.40;;
11319;SDS011;5715;48.234;14.320;2023-03-26T23:07:17;1.30;;;1.30;;
11319;SDS011;5715;48.234;14.320;2023-03-26T23:10:05;1.70;;;1.60;;
11319;SDS011;5715;48.234;14.320;2023-03-26T23:12:54;1.60;;;1.50;;
11319;SDS011;5715;48.234;14.320;2023-03-26T23:15:42;7.70;;;1.70;;
11319;SDS011;5715;48.234;14.320;2023-03-26T23:18:30;2.90;;;1.57;;
11319;SDS011;5715;48.234;14.320;2023-03-26T23:21:19;1.40;;;1.40;;
11319;SDS011;5715;48.234;14.320;2023-03-26T23:24:08;1.70;;;1.60;;
11319;SDS011;5715;48.234;14.320;2023-03-26T23:26:55;2.10;;;2.00;;
11319;SDS011;5715;48.234;14.320;2023-03-26T23:29:44;2.00;;;1.90;;
11319;SDS011;5715;48.234;14.320;2023-03-26T23:32:32;2.03;;;1.93;;
11319;SDS011;5715;48.234;14.320;2023-03-26T23:35:24;2.27;;;2.17;;
11319;SDS011;5715;48.234;14.320;2023-03-26T23:38:11;2.30;;;2.20;;
11319;SDS011;5715;48.234;14.320;2023-03-26T23:40:59;2.33;;;2.20;;
11319;SDS011;5715;48.234;14.320;2023-03-26T23:43:48;2.30;;;2.20;;
11319;SDS011;5715;48.234;14.320;2023-03-26T23:46:41;2.40;;;2.30;;
11319;SDS011;5715;48.234;14.320;2023-03-26T23:49:29;2.70;;;2.60;;
11319;SDS011;5715;48.234;14.320;2023-03-26T23:52:17;2.30;;;2.20;;
11319;SDS011;5715;48.234;14.320;2023-03-26T23:55:05;2.07;;;1.97;;
11319;SDS011;5715;48.234;14.320;2023-03-26T23:57:54;2.27;;;2.17;;
